createdAt,value
2019-03-13T00:02:13.059Z,95173.84
2019-03-13T00:04:42.780Z,95173.41
2019-03-13T00:07:12.381Z,95176.61
2019-03-13T00:09:42.099Z,95175.80
2019-03-13T00:12:11.683Z,95179.41
2019-03-13T00:14:41.378Z,95178.46
2019-03-13T00:17:11.010Z,95178.56
2019-03-13T00:19:40.696Z,95181.14
2019-03-13T00:22:12.064Z,95180.81
2019-03-13T00:24:41.751Z,95180.62
2019-03-13T00:27:11.478Z,95180.31
2019-03-13T00:29:41.103Z,95184.75
2019-03-13T00:32:13.027Z,95175.79
2019-03-13T00:34:42.752Z,95159.02
2019-03-13T00:37:12.440Z,95162.44
2019-03-13T00:39:42.172Z,95167.45
2019-03-13T00:42:11.901Z,95156.08
2019-03-13T00:44:41.642Z,95155.04
2019-03-13T00:47:11.222Z,95151.84
2019-03-13T00:49:40.916Z,95149.17
2019-03-13T00:52:10.626Z,95160.58
2019-03-13T00:54:40.262Z,95156.38
2019-03-13T00:57:09.961Z,95161.09
2019-03-13T00:59:39.636Z,95153.18
2019-03-13T01:02:27.061Z,95147.84
2019-03-13T01:05:15.548Z,95138.39
2019-03-13T01:07:45.238Z,95132.23
2019-03-13T01:10:14.958Z,95137.48
2019-03-13T01:12:44.588Z,95129.56
2019-03-13T01:15:14.377Z,95128.32
2019-03-13T01:17:44.015Z,95123.60
2019-03-13T01:20:13.691Z,95133.28
2019-03-13T01:22:43.555Z,95131.52
2019-03-13T01:25:13.263Z,95132.09
2019-03-13T01:27:42.843Z,95133.44
2019-03-13T01:30:12.665Z,95134.05
2019-03-13T01:32:50.900Z,95130.47
2019-03-13T01:35:48.731Z,95133.05
2019-03-13T01:38:18.435Z,95134.12
2019-03-13T01:40:48.162Z,95130.31
2019-03-13T01:43:17.782Z,95122.92
2019-03-13T01:45:47.384Z,95122.50
2019-03-13T01:48:17.096Z,95125.16
2019-03-13T01:50:46.785Z,95122.59
2019-03-13T01:53:16.535Z,95118.88
2019-03-13T01:55:46.205Z,95119.44
2019-03-13T01:58:15.836Z,95125.75
2019-03-13T02:00:45.532Z,95125.45
2019-03-13T02:03:15.159Z,95124.78
2019-03-13T02:05:44.849Z,95119.53
2019-03-13T02:08:14.479Z,95122.92
2019-03-13T02:10:44.068Z,95129.50
2019-03-13T02:13:13.775Z,95129.08
2019-03-13T02:15:43.401Z,95135.63
2019-03-13T02:18:13.096Z,95128.07
2019-03-13T02:20:42.722Z,95127.84
2019-03-13T02:23:12.412Z,95126.11
2019-03-13T02:25:42.037Z,95128.78
2019-03-13T02:28:11.742Z,95127.84
2019-03-13T02:30:41.336Z,95128.27
2019-03-13T02:33:10.993Z,95130.02
2019-03-13T02:35:40.658Z,95129.80
2019-03-13T02:38:10.281Z,95132.37
2019-03-13T02:40:39.879Z,95143.15
2019-03-13T02:43:09.613Z,95145.20
2019-03-13T02:45:39.218Z,95143.77
2019-03-13T02:48:08.945Z,95150.77
2019-03-13T02:50:38.545Z,95159.92
2019-03-13T02:53:08.228Z,95160.32
2019-03-13T02:55:37.892Z,95152.95
2019-03-13T02:58:07.546Z,95151.81
2019-03-13T03:00:56.143Z,95143.19
2019-03-13T03:03:31.767Z,95152.53
2019-03-13T03:06:01.518Z,95154.91
2019-03-13T03:08:31.292Z,95149.14
2019-03-13T03:11:00.977Z,95160.77
2019-03-13T03:13:30.698Z,95155.43
2019-03-13T03:16:00.401Z,95154.48
2019-03-13T03:18:30.039Z,95152.53
2019-03-13T03:20:59.767Z,95146.89
2019-03-13T03:23:29.347Z,95159.73
2019-03-13T03:25:59.092Z,95155.95
2019-03-13T03:28:28.729Z,95160.87
2019-03-13T03:30:58.369Z,95163.73
2019-03-13T03:33:28.073Z,95158.30
2019-03-13T03:35:57.796Z,95155.20
2019-03-13T03:38:27.508Z,95159.34
2019-03-13T03:40:57.128Z,95158.20
2019-03-13T03:43:39.472Z,95154.09
2019-03-13T03:45:58.255Z,95159.83
2019-03-13T03:48:27.971Z,95156.25
2019-03-13T03:50:57.610Z,95159.02
2019-03-13T03:53:27.291Z,95161.98
2019-03-13T03:55:57.048Z,95157.45
2019-03-13T03:58:29.287Z,95165.27
2019-03-13T04:00:58.098Z,95165.07
2019-03-13T04:03:27.778Z,95168.56
2019-03-13T04:05:57.411Z,95174.64
2019-03-13T04:08:27.109Z,95166.70
2019-03-13T04:10:56.849Z,95172.05
2019-03-13T04:13:26.518Z,95164.55
2019-03-13T04:15:56.235Z,95163.12
2019-03-13T04:18:25.862Z,95157.35
2019-03-13T04:20:55.553Z,95168.06
2019-03-13T04:23:25.172Z,95168.56
2019-03-13T04:25:54.877Z,95162.63
2019-03-13T04:28:24.497Z,95164.68
2019-03-13T04:30:54.209Z,95175.06
2019-03-13T04:33:24.419Z,95178.84
2019-03-13T04:35:55.362Z,95165.59
2019-03-13T04:38:25.098Z,95162.08
2019-03-13T04:40:54.832Z,95174.42
2019-03-13T04:43:24.485Z,95179.98
2019-03-13T04:45:54.115Z,95179.24
2019-03-13T04:48:23.809Z,95186.73
2019-03-13T04:50:53.470Z,95186.86
2019-03-13T04:53:23.132Z,95191.58
2019-03-13T04:55:52.912Z,95188.59
2019-03-13T04:58:22.555Z,95190.87
2019-03-13T05:00:52.264Z,95183.57
2019-03-13T05:03:21.976Z,95184.27
2019-03-13T05:05:59.900Z,95184.09
2019-03-13T05:08:47.255Z,95183.39
2019-03-13T05:11:16.916Z,95184.31
2019-03-13T05:13:47.652Z,95187.58
2019-03-13T05:16:17.274Z,95185.33
2019-03-13T05:18:46.970Z,95177.52
2019-03-13T05:21:16.603Z,95179.39
2019-03-13T05:23:46.313Z,95184.92
2019-03-13T05:26:17.292Z,95184.41
2019-03-13T05:28:46.942Z,95181.63
2019-03-13T05:31:16.649Z,95178.03
2019-03-13T05:33:46.322Z,95177.00
2019-03-13T05:36:17.013Z,95188.09
2019-03-13T05:38:46.908Z,95185.33
2019-03-13T05:41:16.633Z,95193.14
2019-03-13T05:43:46.319Z,95186.88
2019-03-13T05:46:15.974Z,95188.42
2019-03-13T05:48:45.646Z,95191.09
2019-03-13T05:51:15.283Z,95190.27
2019-03-13T05:53:44.962Z,95191.92
2019-03-13T05:56:14.678Z,95188.02
2019-03-13T05:58:44.429Z,95193.58
2019-03-13T06:01:14.169Z,95194.50
2019-03-13T06:03:43.593Z,95191.72
2019-03-13T06:06:13.442Z,95203.72
2019-03-13T06:08:43.219Z,95202.80
2019-03-13T06:11:13.790Z,95204.14
2019-03-13T06:13:43.763Z,95209.89
2019-03-13T06:16:13.362Z,95219.76
2019-03-13T06:18:43.131Z,95223.02
2019-03-13T06:21:12.747Z,95222.73
2019-03-13T06:23:42.423Z,95237.32
2019-03-13T06:26:12.791Z,95241.40
2019-03-13T06:28:42.769Z,95240.39
2019-03-13T06:31:12.672Z,95236.91
2019-03-13T06:33:42.457Z,95234.34
2019-03-13T06:36:12.319Z,95232.90
2019-03-13T06:38:41.942Z,95230.92
2019-03-13T06:41:11.656Z,95225.27
2019-03-13T06:43:41.327Z,95227.44
2019-03-13T06:46:11.037Z,95220.47
2019-03-13T06:48:40.774Z,95225.48
2019-03-13T06:51:10.388Z,95225.39
2019-03-13T06:53:40.083Z,95217.06
2019-03-13T06:56:09.971Z,95218.70
2019-03-13T06:58:45.336Z,95214.81
2019-03-13T07:01:39.877Z,95212.96
2019-03-13T07:04:32.103Z,95212.15
2019-03-13T07:07:10.311Z,95213.29
2019-03-13T07:09:45.648Z,95214.20
2019-03-13T07:12:32.420Z,95211.42
2019-03-13T07:15:11.343Z,95218.42
2019-03-13T07:18:01.159Z,95219.44
2019-03-13T07:20:45.276Z,95224.67
2019-03-13T07:23:33.756Z,95223.16
2019-03-13T07:26:12.093Z,95220.89
2019-03-13T07:29:12.277Z,95213.50
2019-03-13T07:31:56.682Z,95216.17
2019-03-13T07:37:50.292Z,95217.91
2019-03-13T07:40:47.457Z,95207.45
2019-03-13T07:43:35.955Z,95198.52
2019-03-13T07:46:27.230Z,95198.72
2019-03-13T07:49:21.267Z,95204.88
2019-03-13T07:52:08.583Z,95203.64
2019-03-13T07:55:06.108Z,95195.53
2019-03-13T07:57:54.584Z,95185.99
2019-03-13T08:00:50.013Z,95192.02
2019-03-13T08:03:41.469Z,95194.09
2019-03-13T08:06:28.838Z,95195.44
2019-03-13T08:09:15.169Z,95191.21
2019-03-13T08:12:03.600Z,95186.09
2019-03-13T08:14:53.491Z,95185.77
2019-03-13T08:17:36.449Z,95192.56
2019-03-13T08:20:34.191Z,95189.88
2019-03-13T08:23:40.647Z,95185.27
2019-03-13T08:26:18.761Z,95183.11
2019-03-13T08:28:53.401Z,95176.95
2019-03-13T08:31:37.294Z,95176.33
2019-03-13T08:34:20.260Z,95178.67
2019-03-13T08:37:15.120Z,95166.28
2019-03-13T08:39:57.269Z,95158.46
2019-03-13T08:42:54.644Z,95153.63
2019-03-13T08:45:49.100Z,95149.64
2019-03-13T08:48:45.158Z,95148.30
2019-03-13T08:51:36.580Z,95146.97
2019-03-13T08:54:23.565Z,95138.09
2019-03-13T08:57:21.029Z,95129.80
2019-03-13T09:00:08.123Z,95131.48
2019-03-13T09:02:56.634Z,95130.77
2019-03-13T09:05:44.029Z,95142.05
2019-03-13T09:08:47.850Z,95139.14
2019-03-13T09:11:36.273Z,95134.94
2019-03-13T09:14:30.523Z,95130.70
2019-03-13T09:17:19.052Z,95123.83
2019-03-13T09:20:07.467Z,95110.24
2019-03-13T09:22:45.491Z,95107.33
2019-03-13T09:25:33.930Z,95093.20
2019-03-13T09:28:28.479Z,95095.45
2019-03-13T09:31:20.818Z,95085.72
2019-03-13T09:33:56.535Z,95087.97
2019-03-13T09:36:36.004Z,95085.68
2019-03-13T09:39:14.171Z,95087.95
2019-03-13T09:42:01.165Z,95092.56
2019-03-13T09:44:46.061Z,95092.25
2019-03-13T09:50:20.980Z,95092.02
2019-03-13T09:53:21.616Z,95092.96
2019-03-13T09:56:08.541Z,95081.45
2019-03-13T09:58:45.746Z,95085.98
2019-03-13T10:01:21.403Z,95085.03
2019-03-13T10:04:17.634Z,95083.78
2019-03-13T10:07:15.302Z,95081.92
2019-03-13T10:10:03.733Z,95080.88
2019-03-13T10:12:52.189Z,95075.63
2019-03-13T10:15:30.248Z,95082.96
2019-03-13T10:18:15.584Z,95075.94
2019-03-13T10:21:04.018Z,95076.31
2019-03-13T10:23:55.523Z,95079.08
2019-03-13T10:26:40.742Z,95078.44
2019-03-13T10:29:27.792Z,95073.00
2019-03-13T10:32:10.159Z,95078.13
2019-03-13T10:34:52.362Z,95082.97
2019-03-13T10:37:58.900Z,95068.85
2019-03-13T10:40:47.476Z,95066.96
2019-03-13T10:43:35.930Z,95065.02
2019-03-13T10:46:16.610Z,95062.43
2019-03-13T10:49:10.995Z,95069.72
2019-03-13T10:51:58.139Z,95050.30
2019-03-13T10:54:55.983Z,95047.11
2019-03-13T10:57:44.639Z,95047.63
2019-03-13T11:00:36.072Z,95039.15
2019-03-13T11:03:12.984Z,95033.97
2019-03-13T11:06:07.398Z,95028.30
2019-03-13T11:08:47.383Z,95029.88
2019-03-13T11:11:44.685Z,95020.98
2019-03-13T11:14:45.302Z,95018.91
2019-03-13T11:17:33.865Z,95024.47
2019-03-13T11:20:13.281Z,95022.11
2019-03-13T11:22:58.689Z,95013.94
2019-03-13T11:25:59.544Z,95005.55
2019-03-13T11:28:48.039Z,94999.06
2019-03-13T11:31:35.103Z,94992.09
2019-03-13T11:34:29.934Z,94983.71
2019-03-13T11:37:24.428Z,94984.44
2019-03-13T11:40:07.071Z,94984.73
2019-03-13T11:42:58.509Z,94980.80
2019-03-13T11:45:53.018Z,94979.91
2019-03-13T11:48:30.677Z,94969.97
2019-03-13T11:51:14.928Z,94967.42
2019-03-13T11:54:03.369Z,94966.09
2019-03-13T11:57:09.957Z,94967.34
2019-03-13T11:59:45.301Z,94978.28
2019-03-13T12:02:32.169Z,94974.99
2019-03-13T12:05:17.210Z,94968.92
2019-03-13T12:08:04.663Z,94954.65
2019-03-13T12:10:41.073Z,94953.08
2019-03-13T12:13:28.444Z,94956.44
2019-03-13T12:16:26.255Z,94955.84
2019-03-13T12:19:02.870Z,94956.72
2019-03-13T12:21:51.365Z,94954.57
2019-03-13T12:24:42.950Z,94960.00
2019-03-13T12:27:31.603Z,94957.03
2019-03-13T12:30:15.813Z,94954.05
2019-03-13T12:32:57.940Z,94946.47
2019-03-13T12:35:45.048Z,94945.22
2019-03-13T12:38:45.807Z,94947.23
2019-03-13T12:41:26.875Z,94957.61
2019-03-13T12:44:13.903Z,94953.77
2019-03-13T12:47:00.098Z,94947.61
2019-03-13T12:49:43.209Z,94945.54
2019-03-13T12:52:37.544Z,94953.97
2019-03-13T12:55:25.087Z,94958.78
2019-03-13T12:58:11.011Z,94961.77
2019-03-13T13:00:58.073Z,94967.84
2019-03-13T13:03:45.479Z,94963.74
2019-03-13T13:06:33.976Z,94960.46
2019-03-13T13:09:14.578Z,94965.23
2019-03-13T13:12:14.973Z,94956.37
2019-03-13T13:14:54.758Z,94960.02
2019-03-13T13:17:41.958Z,94961.61
2019-03-13T13:20:12.261Z,94962.25
2019-03-13T13:22:41.688Z,94956.08
2019-03-13T13:25:11.486Z,94955.55
2019-03-13T13:27:41.305Z,94950.44
2019-03-13T13:30:11.798Z,94957.94
2019-03-13T13:32:41.539Z,94950.36
2019-03-13T13:35:11.194Z,94954.89
2019-03-13T13:37:40.949Z,94953.16
2019-03-13T13:40:10.679Z,94952.05
2019-03-13T13:42:40.369Z,94947.72
2019-03-13T13:45:28.282Z,94948.85
2019-03-13T13:47:57.944Z,94942.17
2019-03-13T13:50:27.652Z,94941.80
2019-03-13T13:52:57.250Z,94941.19
2019-03-13T13:55:26.977Z,94938.52
2019-03-13T13:57:56.692Z,94930.20
2019-03-13T14:00:26.384Z,94935.23
2019-03-13T14:02:56.085Z,94930.50
2019-03-13T14:05:25.925Z,94937.47
2019-03-13T14:07:55.604Z,94927.13
2019-03-13T14:10:25.255Z,94923.20
2019-03-13T14:12:54.934Z,94920.85
2019-03-13T14:15:24.466Z,94919.39
2019-03-13T14:17:54.184Z,94918.12
2019-03-13T14:20:23.773Z,94920.27
2019-03-13T14:22:53.491Z,94915.69
2019-03-13T14:25:23.171Z,94914.85
2019-03-13T14:27:52.875Z,94914.56
2019-03-13T14:30:22.606Z,94912.25
2019-03-13T14:32:52.266Z,94912.94
2019-03-13T14:35:21.748Z,94910.70
2019-03-13T14:37:51.343Z,94911.77
2019-03-13T14:40:21.043Z,94911.01
2019-03-13T14:42:50.740Z,94909.14
2019-03-13T14:45:20.475Z,94904.94
2019-03-13T14:47:50.194Z,94904.48
2019-03-13T14:50:19.801Z,94904.50
2019-03-13T14:52:49.487Z,94899.91
2019-03-13T14:55:19.229Z,94910.53
2019-03-13T14:57:48.905Z,94906.52
2019-03-13T15:00:18.559Z,94906.89
2019-03-13T15:02:48.236Z,94902.22
2019-03-13T15:05:17.934Z,94901.89
2019-03-13T15:07:47.573Z,94900.84
2019-03-13T15:10:17.362Z,94899.43
2019-03-13T15:12:47.002Z,94902.47
2019-03-13T15:15:17.022Z,94904.24
2019-03-13T15:17:46.614Z,94905.74
2019-03-13T15:20:16.822Z,94898.98
2019-03-13T15:22:46.322Z,94902.17
2019-03-13T15:25:16.040Z,94905.29
2019-03-13T15:27:45.665Z,94906.34
2019-03-13T15:30:17.458Z,94908.17
2019-03-13T15:32:47.272Z,94900.47
2019-03-13T15:35:17.030Z,94899.48
2019-03-13T15:37:46.737Z,94898.76
2019-03-13T15:40:16.721Z,94902.25
2019-03-13T15:42:46.770Z,94914.19
2019-03-13T15:45:18.082Z,94909.45
2019-03-13T15:47:47.838Z,94909.58
2019-03-13T15:50:17.470Z,94906.90
2019-03-13T15:52:47.158Z,94902.16
2019-03-13T15:55:16.780Z,94903.34
2019-03-13T15:57:46.512Z,94905.45
2019-03-13T16:00:18.599Z,94903.94
2019-03-13T16:02:48.364Z,94911.27
2019-03-13T16:05:18.105Z,94905.31
2019-03-13T16:07:47.888Z,94910.16
2019-03-13T16:10:17.606Z,94909.86
2019-03-13T16:12:47.339Z,94904.88
2019-03-13T16:15:19.015Z,94903.31
2019-03-13T16:17:49.108Z,94902.42
2019-03-13T16:20:18.926Z,94905.46
2019-03-13T16:22:53.520Z,94911.33
2019-03-13T16:25:23.225Z,94914.12
2019-03-13T16:27:52.950Z,94906.34
2019-03-13T16:30:23.620Z,94903.27
2019-03-13T16:32:53.315Z,94902.42
2019-03-13T16:35:26.226Z,94903.54
2019-03-13T16:37:54.402Z,94906.21
2019-03-13T16:40:24.147Z,94908.97
2019-03-13T16:42:53.858Z,94901.47
2019-03-13T16:45:23.606Z,94905.48
2019-03-13T16:47:53.280Z,94901.27
2019-03-13T16:50:23.057Z,94901.55
2019-03-13T16:52:52.598Z,94901.03
2019-03-13T16:55:22.346Z,94898.28
2019-03-13T16:57:52.022Z,94895.11
2019-03-13T17:00:23.233Z,94896.45
2019-03-13T17:02:52.890Z,94892.35
2019-03-13T17:05:22.633Z,94899.93
2019-03-13T17:07:52.399Z,94896.01
2019-03-13T17:10:25.182Z,94898.32
2019-03-13T17:12:54.909Z,94897.52
2019-03-13T17:17:53.201Z,94899.84
2019-03-13T17:20:26.203Z,94898.21
2019-03-13T17:22:56.000Z,94894.33
2019-03-13T17:25:25.675Z,94897.69
2019-03-13T17:27:55.415Z,94901.91
2019-03-13T17:30:26.157Z,94905.84
2019-03-13T17:32:55.891Z,94909.64
2019-03-13T17:35:25.579Z,94903.11
2019-03-13T17:37:55.215Z,94909.64
2019-03-13T17:40:25.376Z,94914.38
2019-03-13T17:42:55.159Z,94910.08
2019-03-13T17:45:24.723Z,94911.63
2019-03-13T17:47:54.359Z,94910.81
2019-03-13T17:50:24.060Z,94912.96
2019-03-13T17:52:53.792Z,94913.49
2019-03-13T17:55:23.393Z,94907.86
2019-03-13T17:57:53.201Z,94904.86
2019-03-13T18:00:29.944Z,94910.13
2019-03-13T18:02:59.604Z,94915.47
2019-03-13T18:05:29.265Z,94914.38
2019-03-13T18:07:59.014Z,94919.19
2019-03-13T18:10:28.700Z,94919.72
2019-03-13T18:12:59.217Z,94914.49
2019-03-13T18:15:28.863Z,94910.28
2019-03-13T18:17:58.641Z,94908.94
2019-03-13T18:20:28.370Z,94908.66
2019-03-13T18:22:57.996Z,94905.74
2019-03-13T18:25:27.684Z,94897.44
2019-03-13T18:27:57.295Z,94904.64
2019-03-13T18:30:27.160Z,94900.69
2019-03-13T18:32:56.839Z,94896.91
2019-03-13T18:35:26.521Z,94900.92
2019-03-13T18:37:56.151Z,94901.13
2019-03-13T18:40:25.806Z,94899.67
2019-03-13T18:42:55.558Z,94907.49
2019-03-13T18:45:25.960Z,94908.30
2019-03-13T18:47:55.620Z,94909.48
2019-03-13T18:50:25.361Z,94905.02
2019-03-13T18:52:55.001Z,94913.12
2019-03-13T18:55:24.760Z,94908.51
2019-03-13T18:57:54.498Z,94895.95
2019-03-13T19:00:26.194Z,94905.10
2019-03-13T19:02:55.753Z,94908.91
2019-03-13T19:05:25.510Z,94912.60
2019-03-13T19:07:55.168Z,94909.31
2019-03-13T19:10:25.107Z,94919.11
2019-03-13T19:12:54.806Z,94917.92
2019-03-13T19:15:24.447Z,94918.58
2019-03-13T19:17:54.749Z,94917.22
2019-03-13T19:20:24.486Z,94914.91
2019-03-13T19:22:54.164Z,94917.33
2019-03-13T19:25:23.727Z,94922.92
2019-03-13T19:27:53.376Z,94922.56
2019-03-13T19:30:27.795Z,94917.95
2019-03-13T19:32:57.485Z,94921.59
2019-03-13T19:35:28.387Z,94928.55
2019-03-13T19:37:58.446Z,94927.16
2019-03-13T19:40:28.047Z,94926.86
2019-03-13T19:42:57.867Z,94928.05
2019-03-13T19:45:33.284Z,94928.25
2019-03-13T19:48:02.993Z,94932.34
2019-03-13T19:50:32.699Z,94926.63
2019-03-13T19:53:02.425Z,94927.45
2019-03-13T19:55:32.157Z,94922.45
2019-03-13T19:58:01.741Z,94924.12
2019-03-13T20:00:31.385Z,94929.10
2019-03-13T20:03:01.700Z,94919.50
2019-03-13T20:05:44.209Z,94918.91
2019-03-13T20:08:02.742Z,94919.16
2019-03-13T20:10:32.370Z,94917.54
2019-03-13T20:13:02.129Z,94918.27
2019-03-13T20:15:32.023Z,94912.19
2019-03-13T20:18:01.677Z,94909.27
2019-03-13T20:20:31.419Z,94887.56
2019-03-13T20:23:01.757Z,94910.33
2019-03-13T20:25:31.512Z,94897.41
2019-03-13T20:28:01.213Z,94901.78
2019-03-13T20:30:30.935Z,94891.66
2019-03-13T20:33:00.566Z,94884.84
2019-03-13T20:35:30.297Z,94879.34
2019-03-13T20:37:59.881Z,94883.34
2019-03-13T20:40:29.588Z,94882.09
2019-03-13T20:43:02.030Z,94883.63
2019-03-13T20:45:30.746Z,94891.08
2019-03-13T20:48:00.498Z,94888.61
2019-03-13T20:50:37.412Z,94889.14
2019-03-13T20:53:01.521Z,94891.00
2019-03-13T20:55:31.220Z,94889.34
2019-03-13T20:58:00.934Z,94887.27
2019-03-13T21:00:30.567Z,94894.56
2019-03-13T21:03:00.243Z,94883.78
2019-03-13T21:05:29.863Z,94884.36
2019-03-13T21:07:59.596Z,94891.20
2019-03-13T21:10:29.389Z,94890.03
2019-03-13T21:12:59.089Z,94892.70
2019-03-13T21:15:28.810Z,94886.95
2019-03-13T21:17:58.429Z,94888.08
2019-03-13T21:20:28.124Z,94889.58
2019-03-13T21:22:58.608Z,94882.13
2019-03-13T21:25:28.356Z,94874.48
2019-03-13T21:27:57.979Z,94864.98
2019-03-13T21:30:27.785Z,94856.20
2019-03-13T21:32:57.505Z,94851.38
2019-03-13T21:35:27.218Z,94850.05
2019-03-13T21:37:56.886Z,94854.06
2019-03-13T21:40:26.627Z,94859.69
2019-03-13T21:42:56.242Z,94856.73
2019-03-13T21:45:25.958Z,94853.85
2019-03-13T21:47:55.658Z,94858.67
2019-03-13T21:50:25.411Z,94854.59
2019-03-13T21:52:55.083Z,94858.80
2019-03-13T21:55:27.245Z,94862.44
2019-03-13T21:57:56.176Z,94863.70
2019-03-13T22:00:25.762Z,94863.61
2019-03-13T22:02:55.466Z,94852.20
2019-03-13T22:05:27.077Z,94852.48
2019-03-13T22:07:56.602Z,94854.86
2019-03-13T22:10:26.240Z,94855.23
2019-03-13T22:12:55.950Z,94853.89
2019-03-13T22:15:25.557Z,94860.05
2019-03-13T22:17:55.264Z,94851.98
2019-03-13T22:20:24.894Z,94850.65
2019-03-13T22:22:54.577Z,94849.81
2019-03-13T22:25:24.298Z,94854.66
2019-03-13T22:27:53.925Z,94848.19
2019-03-13T22:30:23.608Z,94850.86
2019-03-13T22:32:53.356Z,94843.05
2019-03-13T22:35:23.032Z,94849.81
2019-03-13T22:37:52.661Z,94843.66
2019-03-13T22:40:22.355Z,94845.22
2019-03-13T22:42:51.994Z,94834.01
2019-03-13T22:45:21.673Z,94836.89
2019-03-13T22:47:51.384Z,94831.25
2019-03-13T22:50:21.117Z,94828.06
2019-03-13T22:52:50.820Z,94834.22
2019-03-13T22:55:20.446Z,94842.03
2019-03-13T22:57:50.231Z,94838.14
2019-03-13T23:00:49.670Z,94844.91
2019-03-13T23:03:19.545Z,94838.02
2019-03-13T23:05:49.257Z,94837.12
2019-03-13T23:08:18.959Z,94844.53
2019-03-13T23:10:48.682Z,94842.39
2019-03-13T23:13:18.422Z,94842.91
2019-03-13T23:15:48.102Z,94844.74
2019-03-13T23:18:18.478Z,94850.17
2019-03-13T23:20:48.365Z,94843.20
2019-03-13T23:23:18.099Z,94843.64
2019-03-13T23:25:47.765Z,94843.36
2019-03-13T23:28:17.329Z,94830.57
2019-03-13T23:30:47.257Z,94832.52
2019-03-13T23:33:16.935Z,94828.70
2019-03-13T23:35:46.604Z,94833.84
2019-03-13T23:38:16.238Z,94825.67
2019-03-13T23:40:45.928Z,94822.55
2019-03-13T23:43:15.589Z,94822.55
2019-03-13T23:45:45.251Z,94819.22
2019-03-13T23:48:14.970Z,94814.41
2019-03-13T23:50:44.704Z,94822.25
2019-03-13T23:53:14.375Z,94815.22
2019-03-13T23:55:44.014Z,94816.63
2019-03-13T23:58:13.698Z,94809.27
